Time;durP1;ratioP1;P1;durP2;ratioP2;P2;SDS_P1;SDS_P2;PMS_P1;PMS_P2;Temp;Humidity;BMP_temperature;BMP_pressure;BME280_temperature;BME280_humidity;BME280_pressure;Samples;Min_cycle;Max_cycle;Signal;HPM_P1;HPM_P2
2020/12/06 00:00:49;;;;;;;;;;;22.50;41.10;;;;;;1551934;75;1153;-67
2020/12/06 00:02:52;;;;;;;;;;;22.40;41.20;;;;;;1552191;75;788;-67
2020/12/06 00:04:54;;;;;;;;;;;22.40;41.30;;;;;;1551285;75;713;-67
2020/12/06 00:06:56;;;;;;;;;;;22.40;41.30;;;;;;1551512;75;712;-66
2020/12/06 00:08:58;;;;;;;;;;;22.40;41.20;;;;;;1552078;75;728;-67
2020/12/06 00:11:00;;;;;;;;;;;22.30;41.50;;;;;;1554577;75;1200;-64
2020/12/06 00:13:02;;;;;;;;;;;22.40;41.30;;;;;;1547720;75;796;-67
2020/12/06 00:15:05;;;;;;;;;;;22.30;41.40;;;;;;1552345;75;707;-67
2020/12/06 00:17:07;;;;;;;;;;;22.40;41.50;;;;;;1552067;75;1939;-67
2020/12/06 00:19:08;;;;;;;;;;;22.30;41.50;;;;;;1552128;75;727;-67
2020/12/06 00:21:17;;;;;;;;;;;22.30;41.20;;;;;;1550441;75;1123;-67
2020/12/06 00:23:20;;;;;;;;;;;22.40;41.30;;;;;;1556598;75;732;-67
2020/12/06 00:25:22;;;;;;;;;;;22.40;41.10;;;;;;1554547;75;829;-66
2020/12/06 00:27:24;;;;;;;;;;;22.40;41.20;;;;;;1550868;75;711;-67
2020/12/06 00:29:26;;;;;;;;;;;22.40;41.80;;;;;;1553264;75;708;-68
2020/12/06 00:31:27;;;;;;;;;;;22.40;41.20;;;;;;1554184;75;1112;-67
2020/12/06 00:33:30;;;;;;;;;;;22.40;41.20;;;;;;1552170;75;743;-66
2020/12/06 00:35:32;;;;;;;;;;;22.50;41.10;;;;;;1551732;75;727;-67
2020/12/06 00:37:34;;;;;;;;;;;22.50;41.10;;;;;;1552016;75;1939;-65
2020/12/06 00:39:36;;;;;;;;;;;22.40;41.00;;;;;;1550652;75;701;-66
2020/12/06 00:41:38;;;;;;;;;;;22.50;41.00;;;;;;1552076;75;1081;-67
2020/12/06 00:43:40;;;;;;;;;;;22.50;41.20;;;;;;1552151;75;767;-67
2020/12/06 00:45:42;;;;;;;;;;;22.50;41.20;;;;;;1553384;75;776;-67
2020/12/06 00:47:44;;;;;;;;;;;22.40;41.40;;;;;;1554137;75;733;-66
2020/12/06 00:49:45;;;;;;;;;;;22.40;41.30;;;;;;1551967;75;703;-66
2020/12/06 00:51:49;;;;;;;;;;;22.40;41.50;;;;;;1552129;75;696;-67
2020/12/06 00:53:51;;;;;;;;;;;22.40;41.40;;;;;;1552174;75;826;-66
2020/12/06 00:55:53;;;;;;;;;;;22.40;41.60;;;;;;1552077;75;780;-66
2020/12/06 00:57:55;;;;;;;;;;;22.40;41.50;;;;;;1549229;75;1939;-67
2020/12/06 00:59:57;;;;;;;;;;;22.40;41.50;;;;;;1536313;76;1079;-67
2020/12/06 01:01:59;;;;;;;;;;;22.50;41.60;;;;;;1546230;75;759;-67
2020/12/06 01:04:01;;;;;;;;;;;22.50;41.40;;;;;;1546996;75;753;-68
2020/12/06 01:06:03;;;;;;;;;;;22.40;41.10;;;;;;1537865;75;751;-67
2020/12/06 01:08:05;;;;;;;;;;;22.50;41.30;;;;;;1551660;75;761;-67
2020/12/06 01:10:07;;;;;;;;;;;22.40;41.10;;;;;;1548951;76;1187;-67
2020/12/06 01:12:09;;;;;;;;;;;22.50;41.30;;;;;;1551581;76;734;-67
2020/12/06 01:14:11;;;;;;;;;;;22.50;41.30;;;;;;1536484;76;707;-67
2020/12/06 01:16:13;;;;;;;;;;;22.40;41.00;;;;;;1555781;75;689;-67
2020/12/06 01:18:15;;;;;;;;;;;22.50;41.30;;;;;;1529287;76;1940;-67
2020/12/06 01:20:17;;;;;;;;;;;22.50;41.20;;;;;;1530255;76;1245;-68
2020/12/06 01:22:19;;;;;;;;;;;22.50;41.30;;;;;;1549035;76;778;-68
2020/12/06 01:24:21;;;;;;;;;;;22.50;41.20;;;;;;1535080;76;1084;-69
2020/12/06 01:26:23;;;;;;;;;;;22.50;41.10;;;;;;1552077;75;801;-68
2020/12/06 01:28:25;;;;;;;;;;;22.50;41.10;;;;;;1572756;74;776;-68
2020/12/06 01:30:26;;;;;;;;;;;22.50;41.00;;;;;;1560357;75;1238;-67
2020/12/06 01:32:32;;;;;;;;;;;22.50;41.00;;;;;;1553432;75;803;-68
2020/12/06 01:34:32;;;;;;;;;;;22.50;41.00;;;;;;1526281;76;1583;-68
2020/12/06 01:36:34;;;;;;;;;;;22.50;41.00;;;;;;1570342;74;726;-68
2020/12/06 01:38:36;;;;;;;;;;;22.50;40.90;;;;;;1545437;76;1929;-67
2020/12/06 01:40:41;;;;;;;;;;;22.50;40.90;;;;;;1570555;74;1232;-67
2020/12/06 01:42:43;;;;;;;;;;;22.50;40.90;;;;;;1546253;75;742;-68
2020/12/06 01:44:45;;;;;;;;;;;22.50;40.90;;;;;;1538644;75;818;-67
2020/12/06 01:46:47;;;;;;;;;;;22.50;40.90;;;;;;1526488;76;724;-67
2020/12/06 01:48:50;;;;;;;;;;;22.50;40.90;;;;;;1529459;75;737;-68
2020/12/06 01:50:52;;;;;;;;;;;22.40;40.80;;;;;;1573004;74;1138;-67
2020/12/06 01:52:53;;;;;;;;;;;22.50;40.90;;;;;;1552109;76;726;-67
2020/12/06 01:54:56;;;;;;;;;;;22.50;40.90;;;;;;1567296;75;711;-67
2020/12/06 01:56:57;;;;;;;;;;;22.50;40.90;;;;;;1540675;75;730;-68
2020/12/06 01:58:59;;;;;;;;;;;22.40;40.70;;;;;;1549335;76;1937;-66
2020/12/06 02:01:01;;;;;;;;;;;22.50;40.80;;;;;;1552072;76;1196;-67
2020/12/06 02:03:03;;;;;;;;;;;22.50;40.80;;;;;;1552255;76;817;-67
2020/12/06 02:05:05;;;;;;;;;;;22.50;40.80;;;;;;1553462;75;719;-67
2020/12/06 02:07:07;;;;;;;;;;;22.50;40.70;;;;;;1561057;75;792;-67
2020/12/06 02:09:09;;;;;;;;;;;22.50;40.70;;;;;;1552178;75;702;-66
2020/12/06 02:11:11;;;;;;;;;;;22.50;40.70;;;;;;1545097;75;1193;-66
2020/12/06 02:13:13;;;;;;;;;;;22.50;40.60;;;;;;1551994;76;785;-67
2020/12/06 02:15:14;;;;;;;;;;;22.50;40.60;;;;;;1559960;75;576;-67
2020/12/06 02:17:16;;;;;;;;;;;22.50;40.60;;;;;;1555266;75;1940;-67
2020/12/06 02:19:18;;;;;;;;;;;22.50;40.50;;;;;;1559170;75;737;-67
2020/12/06 02:21:20;;;;;;;;;;;22.50;40.50;;;;;;1552160;74;1172;-67
2020/12/06 02:23:22;;;;;;;;;;;22.50;40.60;;;;;;1552503;75;781;-66
2020/12/06 02:25:24;;;;;;;;;;;22.50;40.50;;;;;;1556786;75;724;-67
2020/12/06 02:27:26;;;;;;;;;;;22.50;40.40;;;;;;1564409;75;783;-67
2020/12/06 02:29:27;;;;;;;;;;;22.50;40.40;;;;;;1552329;75;717;-68
2020/12/06 02:31:29;;;;;;;;;;;22.50;40.40;;;;;;1552144;75;1122;-67
2020/12/06 02:33:31;;;;;;;;;;;22.50;40.40;;;;;;1552186;76;819;-68
2020/12/06 02:35:33;;;;;;;;;;;22.50;40.40;;;;;;1543089;75;715;-66
2020/12/06 02:37:35;;;;;;;;;;;22.50;40.40;;;;;;1540355;75;1921;-68
2020/12/06 02:39:37;;;;;;;;;;;22.50;40.40;;;;;;1533962;75;696;-67
2020/12/06 02:41:40;;;;;;;;;;;22.50;40.30;;;;;;1549194;75;1107;-67
2020/12/06 02:43:42;;;;;;;;;;;22.50;40.40;;;;;;1562236;75;761;-66
2020/12/06 02:45:43;;;;;;;;;;;22.50;40.30;;;;;;1552313;76;792;-67
2020/12/06 02:47:45;;;;;;;;;;;22.50;40.30;;;;;;1566593;75;757;-66
2020/12/06 02:49:47;;;;;;;;;;;22.50;40.30;;;;;;1560247;75;1145;-66
2020/12/06 02:51:49;;;;;;;;;;;22.50;40.30;;;;;;1552376;75;680;-66
2020/12/06 02:53:51;;;;;;;;;;;22.50;40.20;;;;;;1579402;75;855;-67
2020/12/06 02:55:53;;;;;;;;;;;22.50;40.20;;;;;;1561204;75;805;-67
2020/12/06 02:57:55;;;;;;;;;;;22.50;40.30;;;;;;1538689;75;1932;-66
2020/12/06 02:59:56;;;;;;;;;;;22.50;40.30;;;;;;1551974;75;1093;-67
2020/12/06 03:01:58;;;;;;;;;;;22.50;40.30;;;;;;1552251;75;908;-67
2020/12/06 03:04:00;;;;;;;;;;;22.40;40.20;;;;;;1575250;75;763;-66
2020/12/06 03:06:02;;;;;;;;;;;22.50;40.30;;;;;;1559503;75;793;-66
2020/12/06 03:08:04;;;;;;;;;;;22.50;40.30;;;;;;1558825;75;726;-67
2020/12/06 03:10:06;;;;;;;;;;;22.50;40.30;;;;;;1557421;74;1187;-67
2020/12/06 03:12:09;;;;;;;;;;;22.50;40.30;;;;;;1571792;75;750;-67
2020/12/06 03:14:10;;;;;;;;;;;22.50;40.30;;;;;;1553352;75;722;-67
2020/12/06 03:16:12;;;;;;;;;;;22.50;40.40;;;;;;1552295;75;715;-67
2020/12/06 03:18:14;;;;;;;;;;;22.50;40.30;;;;;;1548642;75;1943;-67
2020/12/06 03:20:16;;;;;;;;;;;22.50;40.20;;;;;;1568393;74;1187;-67
2020/12/06 03:22:18;;;;;;;;;;;22.50;40.20;;;;;;1558551;75;659;-67
2020/12/06 03:24:20;;;;;;;;;;;22.50;40.20;;;;;;1552184;75;751;-67
2020/12/06 03:26:22;;;;;;;;;;;22.50;40.20;;;;;;1552304;75;766;-67
2020/12/06 03:28:23;;;;;;;;;;;22.50;40.20;;;;;;1563106;75;1009;-68
2020/12/06 03:30:25;;;;;;;;;;;22.50;40.20;;;;;;1563586;75;1147;-68
2020/12/06 03:32:27;;;;;;;;;;;22.50;40.10;;;;;;1553880;75;762;-67
2020/12/06 03:34:29;;;;;;;;;;;22.40;40.10;;;;;;1553779;75;797;-67
2020/12/06 03:36:31;;;;;;;;;;;22.40;40.10;;;;;;1532725;75;776;-66
2020/12/06 03:38:33;;;;;;;;;;;22.40;40.10;;;;;;1554029;75;1984;-68
2020/12/06 03:40:35;;;;;;;;;;;22.40;40.10;;;;;;1563087;75;1136;-67
2020/12/06 03:42:36;;;;;;;;;;;22.50;40.10;;;;;;1562966;75;791;-67
2020/12/06 03:44:39;;;;;;;;;;;22.50;40.20;;;;;;1552291;75;671;-66
2020/12/06 03:46:40;;;;;;;;;;;22.40;40.10;;;;;;1552263;75;696;-68
2020/12/06 03:48:42;;;;;;;;;;;22.50;40.20;;;;;;1544336;75;710;-67
2020/12/06 03:50:44;;;;;;;;;;;22.50;40.20;;;;;;1552179;75;1153;-67
2020/12/06 03:52:46;;;;;;;;;;;22.50;40.40;;;;;;1565362;75;719;-68
2020/12/06 03:54:48;;;;;;;;;;;22.40;40.30;;;;;;1579223;75;780;-67
2020/12/06 03:56:50;;;;;;;;;;;22.50;40.50;;;;;;1560360;75;730;-66
2020/12/06 03:58:52;;;;;;;;;;;22.50;40.40;;;;;;1571492;75;1946;-67
2020/12/06 04:00:54;;;;;;;;;;;22.50;40.50;;;;;;1552187;75;1200;-67
2020/12/06 04:02:55;;;;;;;;;;;22.50;40.50;;;;;;1539802;75;763;-67
2020/12/06 04:04:57;;;;;;;;;;;22.50;40.50;;;;;;1541908;75;811;-67
2020/12/06 04:06:59;;;;;;;;;;;22.50;40.50;;;;;;1552219;75;1022;-66
2020/12/06 04:09:01;;;;;;;;;;;22.50;40.50;;;;;;1551008;75;770;-68
2020/12/06 04:11:05;;;;;;;;;;;22.60;40.50;;;;;;1544597;75;1155;-67
2020/12/06 04:13:06;;;;;;;;;;;22.50;40.50;;;;;;1551862;75;1622;-68
2020/12/06 04:15:08;;;;;;;;;;;22.50;40.50;;;;;;1540078;75;747;-67
2020/12/06 04:17:10;;;;;;;;;;;22.50;40.50;;;;;;1538335;75;745;-64
2020/12/06 04:19:12;;;;;;;;;;;22.50;40.50;;;;;;1551605;75;1943;-66
2020/12/06 04:21:14;;;;;;;;;;;22.50;40.50;;;;;;1552189;75;1169;-67
2020/12/06 04:23:16;;;;;;;;;;;22.50;40.50;;;;;;1552178;75;807;-67
2020/12/06 04:25:18;;;;;;;;;;;22.50;40.50;;;;;;1552329;75;687;-67
2020/12/06 04:27:19;;;;;;;;;;;22.50;40.50;;;;;;1532806;75;775;-67
2020/12/06 04:29:21;;;;;;;;;;;22.50;40.60;;;;;;1550127;75;774;-67
2020/12/06 04:31:23;;;;;;;;;;;22.50;40.60;;;;;;1554632;75;1120;-65
2020/12/06 04:33:25;;;;;;;;;;;22.40;40.50;;;;;;1551910;75;824;-66
2020/12/06 04:35:27;;;;;;;;;;;22.40;40.50;;;;;;1532730;75;733;-67
2020/12/06 04:37:29;;;;;;;;;;;22.50;40.70;;;;;;1552505;75;756;-66
2020/12/06 04:39:31;;;;;;;;;;;22.40;40.60;;;;;;1544614;75;1929;-67
2020/12/06 04:41:33;;;;;;;;;;;22.40;40.60;;;;;;1547591;75;1135;-64
2020/12/06 04:43:35;;;;;;;;;;;22.40;40.60;;;;;;1572459;74;733;-67
2020/12/06 04:45:37;;;;;;;;;;;22.40;40.60;;;;;;1572706;74;772;-67
2020/12/06 04:47:40;;;;;;;;;;;22.40;40.60;;;;;;1572630;74;707;-67
2020/12/06 04:49:46;;;;;;;;;;;22.40;40.60;;;;;;1572394;74;1965;-66
2020/12/06 04:51:48;;;;;;;;;;;22.40;40.50;;;;;;1572424;74;699;-68
2020/12/06 04:53:51;;;;;;;;;;;22.40;40.60;;;;;;1550485;74;775;-68
2020/12/06 04:55:53;;;;;;;;;;;22.50;40.70;;;;;;1561859;74;1948;-67
2020/12/06 04:57:56;;;;;;;;;;;22.40;40.50;;;;;;1570441;74;711;-67
2020/12/06 05:00:05;;;;;;;;;;;22.50;40.60;;;;;;1579655;74;1891;-67
2020/12/06 05:02:07;;;;;;;;;;;22.40;40.50;;;;;;1553510;75;1810;-67
2020/12/06 05:04:10;;;;;;;;;;;22.50;40.70;;;;;;1548406;75;781;-67
2020/12/06 05:06:14;;;;;;;;;;;22.50;40.60;;;;;;1538518;76;691;-68
2020/12/06 05:08:16;;;;;;;;;;;22.50;40.50;;;;;;1539067;75;668;-68
2020/12/06 05:10:18;;;;;;;;;;;22.50;40.50;;;;;;1545091;75;1161;-68
2020/12/06 05:12:20;;;;;;;;;;;22.50;40.50;;;;;;1552396;75;740;-67
2020/12/06 05:14:21;;;;;;;;;;;22.50;40.50;;;;;;1554300;75;715;-65
2020/12/06 05:16:23;;;;;;;;;;;22.50;40.50;;;;;;1560824;75;802;-68
2020/12/06 05:18:25;;;;;;;;;;;22.50;40.50;;;;;;1556244;75;1943;-67
2020/12/06 05:20:27;;;;;;;;;;;22.60;40.40;;;;;;1538563;75;1217;-67
2020/12/06 05:22:29;;;;;;;;;;;22.60;40.30;;;;;;1566675;74;753;-67
2020/12/06 05:24:31;;;;;;;;;;;22.60;40.40;;;;;;1554212;75;708;-67
2020/12/06 05:26:33;;;;;;;;;;;22.60;40.30;;;;;;1554229;75;704;-67
2020/12/06 05:28:35;;;;;;;;;;;22.60;40.30;;;;;;1563162;75;702;-68
2020/12/06 05:30:40;;;;;;;;;;;22.60;40.20;;;;;;1548967;75;1146;-67
2020/12/06 05:32:42;;;;;;;;;;;22.60;40.20;;;;;;1531751;75;718;-67
2020/12/06 05:34:44;;;;;;;;;;;22.60;40.20;;;;;;1570503;74;730;-67
2020/12/06 05:36:46;;;;;;;;;;;22.60;40.20;;;;;;1544781;76;737;-67
2020/12/06 05:38:48;;;;;;;;;;;22.60;40.20;;;;;;1549444;76;1931;-67
2020/12/06 05:40:50;;;;;;;;;;;22.60;40.20;;;;;;1530749;75;1143;-66
2020/12/06 05:42:52;;;;;;;;;;;22.60;40.20;;;;;;1548294;75;800;-67
2020/12/06 05:44:57;;;;;;;;;;;22.60;40.30;;;;;;1552202;75;800;-67
2020/12/06 05:47:00;;;;;;;;;;;22.60;40.20;;;;;;1540925;75;828;-67
2020/12/06 05:49:05;;;;;;;;;;;22.60;40.20;;;;;;1539359;75;686;-67
2020/12/06 05:51:07;;;;;;;;;;;22.60;40.20;;;;;;1546834;75;1159;-66
2020/12/06 05:53:09;;;;;;;;;;;22.70;40.20;;;;;;1548753;75;727;-67
2020/12/06 05:55:10;;;;;;;;;;;22.70;40.20;;;;;;1553336;75;723;-66
2020/12/06 05:57:12;;;;;;;;;;;22.70;40.20;;;;;;1531116;75;907;-66
2020/12/06 05:59:14;;;;;;;;;;;22.70;40.20;;;;;;1528829;75;1904;-68
2020/12/06 06:01:17;;;;;;;;;;;22.70;40.20;;;;;;1531656;75;1214;-66
2020/12/06 06:03:20;;;;;;;;;;;22.70;40.20;;;;;;1557882;75;751;-67
2020/12/06 06:05:22;;;;;;;;;;;22.70;40.20;;;;;;1539684;75;1074;-67
2020/12/06 06:07:24;;;;;;;;;;;22.70;40.20;;;;;;1565375;75;696;-67
2020/12/06 06:09:26;;;;;;;;;;;22.70;40.00;;;;;;1534449;75;698;-66
2020/12/06 06:11:28;;;;;;;;;;;22.70;40.10;;;;;;1552157;75;1129;-65
2020/12/06 06:13:30;;;;;;;;;;;22.70;40.10;;;;;;1551123;75;673;-67
2020/12/06 06:15:32;;;;;;;;;;;22.70;40.10;;;;;;1552149;75;740;-67
2020/12/06 06:17:33;;;;;;;;;;;22.70;40.10;;;;;;1545898;75;739;-67
2020/12/06 06:19:35;;;;;;;;;;;22.70;40.20;;;;;;1552033;75;1935;-67
2020/12/06 06:21:38;;;;;;;;;;;22.70;40.20;;;;;;1552027;75;1228;-65
2020/12/06 06:23:40;;;;;;;;;;;22.70;40.30;;;;;;1552050;75;833;-66
2020/12/06 06:25:42;;;;;;;;;;;22.70;40.20;;;;;;1550673;75;669;-67
2020/12/06 06:27:44;;;;;;;;;;;22.70;40.20;;;;;;1552218;75;812;-65
2020/12/06 06:29:45;;;;;;;;;;;22.60;40.30;;;;;;1565631;75;1050;-68
2020/12/06 06:31:52;;;;;;;;;;;22.60;40.20;;;;;;1552381;75;1098;-67
2020/12/06 06:33:54;;;;;;;;;;;22.60;40.40;;;;;;1564073;75;1304;-66
2020/12/06 06:35:56;;;;;;;;;;;22.60;40.50;;;;;;1552029;75;710;-67
2020/12/06 06:37:58;;;;;;;;;;;22.60;40.50;;;;;;1533255;75;776;-68
2020/12/06 06:40:02;;;;;;;;;;;22.70;40.50;;;;;;1531250;76;1953;-68
2020/12/06 06:42:11;;;;;;;;;;;22.70;40.30;;;;;;1543965;76;668;-68
2020/12/06 06:44:13;;;;;;;;;;;22.70;40.40;;;;;;1554054;75;685;-69
2020/12/06 06:46:16;;;;;;;;;;;22.60;39.90;;;;;;1553765;75;662;-67
2020/12/06 06:48:18;;;;;;;;;;;22.70;39.90;;;;;;1554082;75;790;-69
2020/12/06 06:50:20;;;;;;;;;;;22.70;39.80;;;;;;1547518;75;1083;-67
2020/12/06 06:52:25;;;;;;;;;;;22.70;39.70;;;;;;1557878;75;785;-68
2020/12/06 06:54:30;;;;;;;;;;;22.70;39.70;;;;;;1556039;75;792;-68
2020/12/06 06:56:34;;;;;;;;;;;22.70;39.60;;;;;;1554056;75;785;-68
2020/12/06 06:58:36;;;;;;;;;;;22.70;39.60;;;;;;1557964;75;1129;-68
2020/12/06 07:00:38;;;;;;;;;;;22.60;39.40;;;;;;1524072;76;1950;-67
2020/12/06 07:02:40;;;;;;;;;;;22.70;39.40;;;;;;1557738;74;716;-68
2020/12/06 07:04:43;;;;;;;;;;;22.60;39.30;;;;;;1539730;75;737;-68
2020/12/06 07:06:48;;;;;;;;;;;22.60;39.20;;;;;;1568419;75;1389;-67
2020/12/06 07:08:50;;;;;;;;;;;22.60;39.20;;;;;;1571038;74;941;-68
2020/12/06 07:10:52;;;;;;;;;;;22.60;39.20;;;;;;1581158;73;1159;-69
2020/12/06 07:12:55;;;;;;;;;;;22.60;39.20;;;;;;1548593;75;816;-68
2020/12/06 07:14:57;;;;;;;;;;;22.60;39.20;;;;;;1567051;74;727;-68
2020/12/06 07:16:59;;;;;;;;;;;22.60;39.00;;;;;;1569788;74;790;-67
2020/12/06 07:19:01;;;;;;;;;;;22.60;38.60;;;;;;1569731;74;711;-66
2020/12/06 07:21:03;;;;;;;;;;;22.50;39.00;;;;;;1569562;74;1849;-68
2020/12/06 07:23:05;;;;;;;;;;;22.50;39.10;;;;;;1569524;74;683;-69
2020/12/06 07:25:07;;;;;;;;;;;22.50;39.10;;;;;;1569923;74;726;-69
2020/12/06 07:27:09;;;;;;;;;;;22.50;39.10;;;;;;1571336;74;769;-67
2020/12/06 07:29:11;;;;;;;;;;;22.50;39.00;;;;;;1580691;74;616;-68
2020/12/06 07:31:13;;;;;;;;;;;22.50;39.20;;;;;;1570645;74;1153;-69
2020/12/06 07:33:15;;;;;;;;;;;22.50;39.00;;;;;;1579090;74;723;-68
2020/12/06 07:35:23;;;;;;;;;;;22.50;39.10;;;;;;1566300;75;812;-69
2020/12/06 07:37:21;;;;;;;;;;;22.40;39.00;;;;;;1574031;74;1561;-68
2020/12/06 07:39:23;;;;;;;;;;;22.50;39.00;;;;;;1569225;74;1928;-68
2020/12/06 07:41:25;;;;;;;;;;;22.50;39.20;;;;;;1543119;75;1125;-67
2020/12/06 07:43:27;;;;;;;;;;;22.50;39.00;;;;;;1544858;75;749;-68
2020/12/06 07:45:28;;;;;;;;;;;22.50;39.00;;;;;;1556323;75;801;-68
2020/12/06 07:47:30;;;;;;;;;;;22.40;38.90;;;;;;1555135;75;809;-68
2020/12/06 07:49:34;;;;;;;;;;;22.50;38.90;;;;;;1560612;74;717;-68
2020/12/06 07:51:36;;;;;;;;;;;22.40;39.00;;;;;;1566023;74;1798;-68
2020/12/06 07:53:44;;;;;;;;;;;22.40;38.90;;;;;;1547775;75;695;-68
2020/12/06 07:55:46;;;;;;;;;;;22.40;38.90;;;;;;1551364;75;802;-69
2020/12/06 07:57:48;;;;;;;;;;;22.40;38.90;;;;;;1580203;74;668;-66
2020/12/06 07:59:50;;;;;;;;;;;22.40;39.00;;;;;;1584745;74;1900;-68
2020/12/06 08:01:52;;;;;;;;;;;22.40;39.10;;;;;;1570612;74;713;-68
2020/12/06 08:03:55;;;;;;;;;;;22.40;38.90;;;;;;1565016;74;740;-68
2020/12/06 08:05:58;;;;;;;;;;;22.30;39.00;;;;;;1563563;74;810;-69
2020/12/06 08:08:04;;;;;;;;;;;22.40;38.90;;;;;;1575012;74;663;-68
2020/12/06 08:10:08;;;;;;;;;;;22.40;39.00;;;;;;1575222;74;1154;-69
2020/12/06 08:12:10;;;;;;;;;;;22.40;38.90;;;;;;1574901;74;943;-68
2020/12/06 08:14:14;;;;;;;;;;;22.40;38.70;;;;;;1575755;74;818;-68
2020/12/06 08:16:17;;;;;;;;;;;22.30;39.00;;;;;;1572151;74;1119;-68
2020/12/06 08:18:19;;;;;;;;;;;22.40;38.80;;;;;;1572709;74;778;-68
2020/12/06 08:20:23;;;;;;;;;;;22.30;38.90;;;;;;1572657;74;1954;-68
2020/12/06 08:22:24;;;;;;;;;;;22.40;39.00;;;;;;1572737;74;1747;-68
2020/12/06 08:24:27;;;;;;;;;;;22.40;38.70;;;;;;1572501;74;787;-68
2020/12/06 08:26:38;;;;;;;;;;;22.30;39.00;;;;;;1572820;74;882;-68
2020/12/06 08:28:40;;;;;;;;;;;22.30;38.90;;;;;;1576019;74;742;-68
2020/12/06 08:30:42;;;;;;;;;;;22.30;38.90;;;;;;1570256;74;1124;-68
2020/12/06 08:32:51;;;;;;;;;;;22.30;38.90;;;;;;1554212;75;742;-68
2020/12/06 08:34:54;;;;;;;;;;;22.30;38.90;;;;;;1559193;75;1737;-68
2020/12/06 08:36:55;;;;;;;;;;;22.30;38.90;;;;;;1573065;74;822;-68
2020/12/06 08:38:57;;;;;;;;;;;22.30;38.80;;;;;;1578104;74;713;-68
2020/12/06 08:41:04;;;;;;;;;;;22.30;38.90;;;;;;1573473;74;1932;-68
2020/12/06 08:43:06;;;;;;;;;;;22.30;38.90;;;;;;1570430;74;1062;-68
2020/12/06 08:45:07;;;;;;;;;;;22.30;38.90;;;;;;1554261;75;767;-68
2020/12/06 08:47:09;;;;;;;;;;;22.30;38.90;;;;;;1576833;74;873;-68
2020/12/06 08:49:15;;;;;;;;;;;22.30;38.60;;;;;;1572259;74;681;-68
2020/12/06 08:51:23;;;;;;;;;;;22.30;38.90;;;;;;1578563;74;1136;-69
2020/12/06 08:53:25;;;;;;;;;;;22.30;38.70;;;;;;1574976;74;732;-68
2020/12/06 08:55:29;;;;;;;;;;;22.30;38.70;;;;;;1585958;74;745;-69
2020/12/06 08:57:30;;;;;;;;;;;22.20;38.60;;;;;;1571335;74;1108;-69
2020/12/06 08:59:34;;;;;;;;;;;22.20;38.70;;;;;;1586387;74;713;-68
2020/12/06 09:01:48;;;;;;;;;;;22.30;38.80;;;;;;1550587;75;1930;-69
2020/12/06 09:03:50;;;;;;;;;;;22.30;38.60;;;;;;1601228;73;755;-69
2020/12/06 09:05:51;;;;;;;;;;;22.30;38.80;;;;;;1604702;73;657;-69
2020/12/06 09:07:53;;;;;;;;;;;22.30;38.60;;;;;;1603516;73;782;-69
2020/12/06 09:09:55;;;;;;;;;;;22.40;38.80;;;;;;1604965;73;1155;-69
2020/12/06 09:11:57;;;;;;;;;;;22.30;38.70;;;;;;1601590;73;804;-69
2020/12/06 09:13:59;;;;;;;;;;;22.30;38.50;;;;;;1600531;73;802;-68
2020/12/06 09:16:01;;;;;;;;;;;22.30;38.80;;;;;;1600591;73;733;-68
2020/12/06 09:18:03;;;;;;;;;;;22.30;38.60;;;;;;1600730;73;724;-68
2020/12/06 09:20:05;;;;;;;;;;;22.30;38.70;;;;;;1572469;74;1978;-68
2020/12/06 09:22:07;;;;;;;;;;;22.30;38.60;;;;;;1555140;75;700;-68
2020/12/06 09:24:09;;;;;;;;;;;22.30;38.40;;;;;;1568588;74;699;-65
2020/12/06 09:26:10;;;;;;;;;;;22.20;38.50;;;;;;1554494;75;662;-68
2020/12/06 09:28:12;;;;;;;;;;;22.30;38.40;;;;;;1554251;75;766;-69
2020/12/06 09:30:14;;;;;;;;;;;22.40;38.50;;;;;;1554659;75;1172;-69
2020/12/06 09:32:16;;;;;;;;;;;22.30;38.50;;;;;;1552424;75;816;-68
2020/12/06 09:34:18;;;;;;;;;;;22.40;38.30;;;;;;1553937;76;808;-69
2020/12/06 09:36:20;;;;;;;;;;;22.30;38.50;;;;;;1551325;75;761;-68
2020/12/06 09:38:22;;;;;;;;;;;22.30;38.40;;;;;;1569048;74;1120;-70
2020/12/06 09:40:24;;;;;;;;;;;22.40;38.40;;;;;;1543906;76;1952;-68
2020/12/06 09:42:26;;;;;;;;;;;22.40;38.40;;;;;;1554169;75;724;-69
2020/12/06 09:44:27;;;;;;;;;;;22.40;38.40;;;;;;1571704;74;773;-67
2020/12/06 09:46:29;;;;;;;;;;;22.30;38.40;;;;;;1554606;75;827;-69
2020/12/06 09:48:31;;;;;;;;;;;22.40;38.30;;;;;;1588036;74;1068;-68
2020/12/06 09:50:33;;;;;;;;;;;22.30;38.30;;;;;;1572740;74;1147;-69
2020/12/06 09:52:35;;;;;;;;;;;22.30;38.40;;;;;;1569822;74;707;-68
2020/12/06 09:54:37;;;;;;;;;;;22.30;38.20;;;;;;1557216;75;692;-68
2020/12/06 09:56:39;;;;;;;;;;;22.30;38.30;;;;;;1567965;74;679;-69
2020/12/06 09:58:40;;;;;;;;;;;22.30;38.20;;;;;;1570612;74;706;-69
2020/12/06 10:00:43;;;;;;;;;;;22.30;38.30;;;;;;1575703;73;1926;-68
2020/12/06 10:02:45;;;;;;;;;;;22.30;38.10;;;;;;1574542;74;617;-70
2020/12/06 10:04:46;;;;;;;;;;;22.30;38.30;;;;;;1565329;74;680;-70
2020/12/06 10:06:48;;;;;;;;;;;22.40;38.30;;;;;;1572187;74;812;-70
2020/12/06 10:08:50;;;;;;;;;;;22.40;38.10;;;;;;1572502;74;690;-68
2020/12/06 10:10:52;;;;;;;;;;;22.40;38.20;;;;;;1576341;74;1191;-69
2020/12/06 10:12:54;;;;;;;;;;;22.40;38.10;;;;;;1565089;74;708;-69
2020/12/06 10:14:56;;;;;;;;;;;22.40;38.00;;;;;;1577116;74;961;-68
2020/12/06 10:16:58;;;;;;;;;;;22.30;38.10;;;;;;1581021;74;725;-69
2020/12/06 10:18:59;;;;;;;;;;;22.30;38.00;;;;;;1574966;74;694;-69
2020/12/06 10:21:01;;;;;;;;;;;22.30;38.10;;;;;;1583420;74;1945;-69
2020/12/06 10:23:03;;;;;;;;;;;22.40;38.00;;;;;;1565590;74;625;-68
2020/12/06 10:25:06;;;;;;;;;;;22.30;38.10;;;;;;1563444;75;717;-69
2020/12/06 10:27:07;;;;;;;;;;;22.30;38.10;;;;;;1562279;75;730;-69
2020/12/06 10:29:09;;;;;;;;;;;22.30;38.00;;;;;;1551620;75;719;-68
2020/12/06 10:31:11;;;;;;;;;;;22.30;38.30;;;;;;1584622;74;1156;-69
2020/12/06 10:33:13;;;;;;;;;;;22.30;38.20;;;;;;1580316;74;739;-69
2020/12/06 10:35:15;;;;;;;;;;;22.20;38.20;;;;;;1575012;74;721;-70
2020/12/06 10:37:17;;;;;;;;;;;22.30;38.30;;;;;;1569851;74;711;-68
2020/12/06 10:39:20;;;;;;;;;;;22.30;38.20;;;;;;1554395;76;729;-68
2020/12/06 10:41:22;;;;;;;;;;;22.30;38.30;;;;;;1578096;74;1934;-68
2020/12/06 10:43:24;;;;;;;;;;;22.20;38.10;;;;;;1578028;74;811;-68
2020/12/06 10:45:26;;;;;;;;;;;22.20;38.20;;;;;;1573071;74;727;-68
2020/12/06 10:47:28;;;;;;;;;;;22.20;38.20;;;;;;1551908;75;697;-68
2020/12/06 10:49:30;;;;;;;;;;;22.20;38.20;;;;;;1554695;75;668;-68
2020/12/06 10:51:32;;;;;;;;;;;22.20;38.20;;;;;;1561817;75;1146;-68
2020/12/06 10:53:34;;;;;;;;;;;22.20;38.10;;;;;;1561848;75;708;-69
2020/12/06 10:55:36;;;;;;;;;;;22.20;38.30;;;;;;1516031;76;669;-69
2020/12/06 10:57:38;;;;;;;;;;;22.30;38.30;;;;;;1553610;75;714;-71
2020/12/06 10:59:40;;;;;;;;;;;22.30;38.40;;;;;;1553082;75;698;-70
2020/12/06 11:01:42;;;;;;;;;;;22.30;38.30;;;;;;1552401;75;1943;-68
2020/12/06 11:03:44;;;;;;;;;;;22.20;38.10;;;;;;1579629;74;764;-68
2020/12/06 11:05:46;;;;;;;;;;;22.30;38.40;;;;;;1551826;76;716;-69
2020/12/06 11:08:00;;;;;;;;;;;22.30;38.30;;;;;;1553857;76;815;-70
2020/12/06 11:10:02;;;;;;;;;;;22.20;38.40;;;;;;1549875;75;1141;-71
2020/12/06 11:12:03;;;;;;;;;;;22.30;38.20;;;;;;1555564;75;687;-70
2020/12/06 11:14:05;;;;;;;;;;;22.20;37.90;;;;;;1548339;76;881;-70
2020/12/06 11:16:07;;;;;;;;;;;22.20;38.20;;;;;;1557652;76;723;-70
2020/12/06 11:18:09;;;;;;;;;;;22.20;38.10;;;;;;1536660;75;863;-70
2020/12/06 11:20:11;;;;;;;;;;;22.20;38.30;;;;;;1540658;75;1217;-69
2020/12/06 11:22:13;;;;;;;;;;;22.20;38.20;;;;;;1566599;74;1926;-69
2020/12/06 11:24:15;;;;;;;;;;;22.20;38.00;;;;;;1557703;76;764;-70
2020/12/06 11:26:17;;;;;;;;;;;22.20;38.30;;;;;;1557168;75;670;-69
2020/12/06 11:28:19;;;;;;;;;;;22.20;38.10;;;;;;1555995;75;825;-69
2020/12/06 11:30:21;;;;;;;;;;;22.20;38.40;;;;;;1573974;75;1141;-70
2020/12/06 11:32:26;;;;;;;;;;;22.20;38.30;;;;;;1566044;74;623;-70
2020/12/06 11:34:28;;;;;;;;;;;22.20;38.90;;;;;;1589783;74;685;-69
2020/12/06 11:36:30;;;;;;;;;;;22.20;38.80;;;;;;1569807;74;700;-69
2020/12/06 11:38:31;;;;;;;;;;;22.20;38.90;;;;;;1576949;74;659;-69
2020/12/06 11:40:33;;;;;;;;;;;22.10;39.40;;;;;;1583677;73;1162;-68
2020/12/06 11:42:35;;;;;;;;;;;22.20;39.20;;;;;;1572738;74;1946;-68
2020/12/06 11:44:37;;;;;;;;;;;22.30;39.60;;;;;;1567813;74;658;-69
2020/12/06 11:46:39;;;;;;;;;;;22.30;39.20;;;;;;1572834;74;737;-67
2020/12/06 11:48:41;;;;;;;;;;;22.30;39.00;;;;;;1557864;74;795;-71
2020/12/06 11:50:43;;;;;;;;;;;22.30;39.50;;;;;;1568398;74;1126;-68
2020/12/06 11:52:44;;;;;;;;;;;22.20;39.00;;;;;;1575234;74;806;-69
2020/12/06 11:54:46;;;;;;;;;;;22.30;39.60;;;;;;1571565;74;595;-69
2020/12/06 11:56:49;;;;;;;;;;;22.30;39.20;;;;;;1554008;74;687;-69
2020/12/06 11:58:51;;;;;;;;;;;22.40;39.00;;;;;;1581814;74;737;-69
2020/12/06 12:00:53;;;;;;;;;;;22.30;39.10;;;;;;1572522;74;1974;-68
2020/12/06 12:02:54;;;;;;;;;;;22.40;38.90;;;;;;1572500;74;761;-68
2020/12/06 12:04:56;;;;;;;;;;;22.40;39.00;;;;;;1572508;74;706;-69
2020/12/06 12:06:58;;;;;;;;;;;22.40;38.90;;;;;;1572474;74;721;-69
2020/12/06 12:09:00;;;;;;;;;;;22.40;38.60;;;;;;1572541;74;763;-71